Terminal Aerodrome Forecast
Issued by NWS

Home | Current Version | Previous Version | Text Only | Print | Product List | Glossary On
Versions: 1 2 3 4 5 6 7 8 9 10 11 12 13 14 15
000
FTUS46 KLOX 231100 RRA
TAFSBA
TAF
KSBA 231140Z 2312/2412 VRB05KT P6SM BKN250 WS010/35035KT
     FM231300 04005KT P6SM SCT250
     FM231800 23007KT P6SM SKC
     FM232100 19007KT P6SM SKC
     FM240200 VRB05KT P6SM SKC=

USA.gov is the U.S. government's official web portal to all federal, state and local government web resources and services.